sensor_id;sensor_type;location;lat;lon;timestamp;pressure;altitude;pressure_sealevel;temperature;humidity
20350;BME280;10332;50.208;18.988;2023-04-26T00:02:02;97492.19;;;10.33;67.74
20350;BME280;10332;50.208;18.988;2023-04-26T00:04:31;97496.41;;;10.12;68.20
20350;BME280;10332;50.208;18.988;2023-04-26T00:07:00;97496.94;;;10.28;67.32
20350;BME280;10332;50.208;18.988;2023-04-26T00:09:28;97493.97;;;10.33;67.75
20350;BME280;10332;50.208;18.988;2023-04-26T00:11:56;97501.91;;;10.31;67.10
20350;BME280;10332;50.208;18.988;2023-04-26T00:14:23;97507.00;;;10.33;66.85
20350;BME280;10332;50.208;18.988;2023-04-26T00:16:51;97504.81;;;10.15;67.23
20350;BME280;10332;50.208;18.988;2023-04-26T00:19:19;97502.22;;;10.15;67.30
20350;BME280;10332;50.208;18.988;2023-04-26T00:21:47;97508.81;;;9.86;67.97
20350;BME280;10332;50.208;18.988;2023-04-26T00:24:14;97504.66;;;9.94;67.44
20350;BME280;10332;50.208;18.988;2023-04-26T00:26:42;97509.44;;;10.01;67.34
20350;BME280;10332;50.208;18.988;2023-04-26T00:29:09;97506.00;;;10.11;66.35
20350;BME280;10332;50.208;18.988;2023-04-26T00:31:37;97501.84;;;9.98;66.99
20350;BME280;10332;50.208;18.988;2023-04-26T00:34:05;97500.78;;;10.00;66.80
20350;BME280;10332;50.208;18.988;2023-04-26T00:36:32;97514.91;;;9.98;66.68
20350;BME280;10332;50.208;18.988;2023-04-26T00:39:00;97511.34;;;9.99;65.86
20350;BME280;10332;50.208;18.988;2023-04-26T00:41:27;97512.63;;;9.93;65.87
20350;BME280;10332;50.208;18.988;2023-04-26T00:43:54;97506.81;;;9.89;65.65
20350;BME280;10332;50.208;18.988;2023-04-26T00:46:22;97514.63;;;9.89;65.48
20350;BME280;10332;50.208;18.988;2023-04-26T00:48:50;97516.50;;;9.87;64.94
20350;BME280;10332;50.208;18.988;2023-04-26T00:51:18;97510.56;;;9.74;64.53
20350;BME280;10332;50.208;18.988;2023-04-26T00:53:46;97515.41;;;9.44;65.47
20350;BME280;10332;50.208;18.988;2023-04-26T00:56:15;97513.44;;;9.58;64.82
20350;BME280;10332;50.208;18.988;2023-04-26T00:58:43;97522.56;;;9.53;64.74
20350;BME280;10332;50.208;18.988;2023-04-26T01:01:12;97515.41;;;9.44;64.84
20350;BME280;10332;50.208;18.988;2023-04-26T01:03:40;97526.03;;;9.41;65.08
20350;BME280;10332;50.208;18.988;2023-04-26T01:06:07;97517.84;;;9.34;64.01
20350;BME280;10332;50.208;18.988;2023-04-26T01:08:35;97524.09;;;9.07;64.14
20350;BME280;10332;50.208;18.988;2023-04-26T01:11:03;97521.16;;;9.12;63.47
20350;BME280;10332;50.208;18.988;2023-04-26T01:13:31;97521.22;;;9.23;62.87
20350;BME280;10332;50.208;18.988;2023-04-26T01:16:00;97529.13;;;8.98;63.57
20350;BME280;10332;50.208;18.988;2023-04-26T01:18:28;97522.06;;;9.00;62.96
20350;BME280;10332;50.208;18.988;2023-04-26T01:20:55;97523.91;;;8.98;62.64
20350;BME280;10332;50.208;18.988;2023-04-26T01:23:23;97525.94;;;8.81;63.33
20350;BME280;10332;50.208;18.988;2023-04-26T01:25:51;97531.13;;;8.94;62.93
20350;BME280;10332;50.208;18.988;2023-04-26T01:28:19;97546.72;;;8.94;62.48
20350;BME280;10332;50.208;18.988;2023-04-26T01:30:47;97545.19;;;8.79;62.42
20350;BME280;10332;50.208;18.988;2023-04-26T01:33:14;97534.19;;;8.50;62.74
20350;BME280;10332;50.208;18.988;2023-04-26T01:35:43;97533.16;;;8.52;63.04
20350;BME280;10332;50.208;18.988;2023-04-26T01:38:11;97547.53;;;8.58;63.05
20350;BME280;10332;50.208;18.988;2023-04-26T01:40:40;97540.44;;;8.60;63.01
20350;BME280;10332;50.208;18.988;2023-04-26T01:43:12;97548.53;;;8.68;62.69
20350;BME280;10332;50.208;18.988;2023-04-26T01:45:45;97545.13;;;8.55;63.17
20350;BME280;10332;50.208;18.988;2023-04-26T01:48:13;97551.34;;;8.14;64.92
20350;BME280;10332;50.208;18.988;2023-04-26T01:50:40;97556.88;;;8.35;64.29
20350;BME280;10332;50.208;18.988;2023-04-26T01:53:08;97550.03;;;8.47;63.73
20350;BME280;10332;50.208;18.988;2023-04-26T01:55:35;97551.25;;;8.29;64.03
20350;BME280;10332;50.208;18.988;2023-04-26T01:58:03;97551.22;;;8.16;64.64
20350;BME280;10332;50.208;18.988;2023-04-26T02:00:32;97556.34;;;8.30;64.19
20350;BME280;10332;50.208;18.988;2023-04-26T02:02:59;97548.31;;;8.33;64.10
20350;BME280;10332;50.208;18.988;2023-04-26T02:05:27;97550.69;;;7.98;65.28
20350;BME280;10332;50.208;18.988;2023-04-26T02:07:55;97553.22;;;8.25;63.98
20350;BME280;10332;50.208;18.988;2023-04-26T02:10:22;97560.41;;;8.21;64.21
20350;BME280;10332;50.208;18.988;2023-04-26T02:12:50;97558.53;;;8.23;64.19
20350;BME280;10332;50.208;18.988;2023-04-26T02:15:17;97554.47;;;8.19;64.39
20350;BME280;10332;50.208;18.988;2023-04-26T02:17:45;97555.59;;;8.15;64.63
20350;BME280;10332;50.208;18.988;2023-04-26T02:20:13;97553.72;;;8.05;64.57
20350;BME280;10332;50.208;18.988;2023-04-26T02:22:40;97550.84;;;8.09;64.61
20350;BME280;10332;50.208;18.988;2023-04-26T02:25:08;97561.84;;;8.13;64.39
20350;BME280;10332;50.208;18.988;2023-04-26T02:27:35;97557.47;;;8.13;64.14
20350;BME280;10332;50.208;18.988;2023-04-26T02:30:04;97553.19;;;8.00;65.05
20350;BME280;10332;50.208;18.988;2023-04-26T02:32:31;97546.53;;;7.95;65.01
20350;BME280;10332;50.208;18.988;2023-04-26T02:34:59;97550.69;;;7.98;64.96
20350;BME280;10332;50.208;18.988;2023-04-26T02:37:26;97555.88;;;7.98;65.21
20350;BME280;10332;50.208;18.988;2023-04-26T02:39:54;97549.13;;;7.83;65.36
20350;BME280;10332;50.208;18.988;2023-04-26T02:42:23;97557.72;;;7.44;67.38
20350;BME280;10332;50.208;18.988;2023-04-26T02:44:51;97559.81;;;7.51;67.05
20350;BME280;10332;50.208;18.988;2023-04-26T02:47:18;97556.25;;;6.98;69.45
20350;BME280;10332;50.208;18.988;2023-04-26T02:49:46;97564.53;;;7.32;68.08
20350;BME280;10332;50.208;18.988;2023-04-26T02:52:13;97563.72;;;7.31;68.51
20350;BME280;10332;50.208;18.988;2023-04-26T02:54:41;97564.97;;;7.11;69.12
20350;BME280;10332;50.208;18.988;2023-04-26T02:57:08;97569.69;;;7.19;68.98
20350;BME280;10332;50.208;18.988;2023-04-26T02:59:36;97568.09;;;7.17;69.56
20350;BME280;10332;50.208;18.988;2023-04-26T03:02:03;97556.34;;;7.11;69.49
20350;BME280;10332;50.208;18.988;2023-04-26T03:04:34;97574.06;;;7.04;70.24
20350;BME280;10332;50.208;18.988;2023-04-26T03:07:03;97574.16;;;7.03;70.00
20350;BME280;10332;50.208;18.988;2023-04-26T03:09:30;97578.56;;;7.15;69.78
20350;BME280;10332;50.208;18.988;2023-04-26T03:11:58;97575.94;;;7.02;70.38
20350;BME280;10332;50.208;18.988;2023-04-26T03:14:26;97575.63;;;7.07;70.38
20350;BME280;10332;50.208;18.988;2023-04-26T03:16:53;97583.91;;;6.85;71.80
20350;BME280;10332;50.208;18.988;2023-04-26T03:19:22;97587.97;;;7.03;71.00
20350;BME280;10332;50.208;18.988;2023-04-26T03:21:50;97591.59;;;6.72;72.63
20350;BME280;10332;50.208;18.988;2023-04-26T03:24:17;97590.13;;;6.68;72.51
20350;BME280;10332;50.208;18.988;2023-04-26T03:26:46;97601.69;;;6.63;73.17
20350;BME280;10332;50.208;18.988;2023-04-26T03:29:16;97605.78;;;6.67;73.17
20350;BME280;10332;50.208;18.988;2023-04-26T03:31:44;97601.19;;;6.28;74.85
20350;BME280;10332;50.208;18.988;2023-04-26T03:34:14;97603.88;;;6.26;75.33
20350;BME280;10332;50.208;18.988;2023-04-26T03:36:42;97600.16;;;6.16;75.75
20350;BME280;10332;50.208;18.988;2023-04-26T03:39:09;97599.56;;;6.11;75.73
20350;BME280;10332;50.208;18.988;2023-04-26T03:41:37;97603.41;;;6.19;75.52
20350;BME280;10332;50.208;18.988;2023-04-26T03:44:06;97608.06;;;5.98;76.45
20350;BME280;10332;50.208;18.988;2023-04-26T03:46:34;97608.84;;;6.15;75.27
20350;BME280;10332;50.208;18.988;2023-04-26T03:49:01;97611.69;;;5.80;76.85
20350;BME280;10332;50.208;18.988;2023-04-26T03:51:29;97609.28;;;5.77;77.35
20350;BME280;10332;50.208;18.988;2023-04-26T03:53:58;97615.66;;;6.02;76.03
20350;BME280;10332;50.208;18.988;2023-04-26T03:56:25;97623.56;;;5.84;76.53
20350;BME280;10332;50.208;18.988;2023-04-26T03:58:53;97622.88;;;5.96;76.37
20350;BME280;10332;50.208;18.988;2023-04-26T04:01:20;97622.13;;;5.94;76.26
20350;BME280;10332;50.208;18.988;2023-04-26T04:03:48;97620.88;;;6.16;75.73
20350;BME280;10332;50.208;18.988;2023-04-26T04:06:15;97632.00;;;6.18;75.38
20350;BME280;10332;50.208;18.988;2023-04-26T04:08:43;97631.00;;;6.20;75.29
20350;BME280;10332;50.208;18.988;2023-04-26T04:11:10;97639.16;;;5.98;76.28
20350;BME280;10332;50.208;18.988;2023-04-26T04:13:38;97637.59;;;5.96;76.55
20350;BME280;10332;50.208;18.988;2023-04-26T04:16:06;97634.72;;;6.01;76.38
20350;BME280;10332;50.208;18.988;2023-04-26T04:18:36;97636.38;;;6.02;76.47
20350;BME280;10332;50.208;18.988;2023-04-26T04:21:04;97634.53;;;6.34;74.72
20350;BME280;10332;50.208;18.988;2023-04-26T04:23:31;97645.19;;;6.29;74.59
20350;BME280;10332;50.208;18.988;2023-04-26T04:25:59;97653.94;;;6.12;75.31
20350;BME280;10332;50.208;18.988;2023-04-26T04:28:26;97643.16;;;5.88;76.49
20350;BME280;10332;50.208;18.988;2023-04-26T04:30:54;97668.50;;;5.99;75.92
20350;BME280;10332;50.208;18.988;2023-04-26T04:33:23;97663.78;;;5.90;75.72
20350;BME280;10332;50.208;18.988;2023-04-26T04:35:55;97663.78;;;5.90;76.08
20350;BME280;10332;50.208;18.988;2023-04-26T04:38:22;97664.22;;;5.98;75.63
20350;BME280;10332;50.208;18.988;2023-04-26T04:40:50;97661.97;;;5.92;75.96
20350;BME280;10332;50.208;18.988;2023-04-26T04:43:18;97661.81;;;5.79;76.15
20350;BME280;10332;50.208;18.988;2023-04-26T04:45:47;97662.97;;;6.05;75.59
20350;BME280;10332;50.208;18.988;2023-04-26T04:48:16;97665.59;;;6.19;74.37
20350;BME280;10332;50.208;18.988;2023-04-26T04:50:44;97663.91;;;6.04;74.99
20350;BME280;10332;50.208;18.988;2023-04-26T04:53:12;97674.34;;;6.33;74.10
20350;BME280;10332;50.208;18.988;2023-04-26T04:55:39;97665.75;;;6.02;74.60
20350;BME280;10332;50.208;18.988;2023-04-26T04:58:07;97668.47;;;6.15;74.28
20350;BME280;10332;50.208;18.988;2023-04-26T05:00:35;97666.09;;;6.26;74.00
20350;BME280;10332;50.208;18.988;2023-04-26T05:03:04;97669.84;;;6.50;73.13
20350;BME280;10332;50.208;18.988;2023-04-26T05:05:32;97669.50;;;6.26;74.01
20350;BME280;10332;50.208;18.988;2023-04-26T05:07:59;97676.09;;;6.76;72.35
20350;BME280;10332;50.208;18.988;2023-04-26T05:10:27;97689.00;;;6.92;70.89
20350;BME280;10332;50.208;18.988;2023-04-26T05:12:54;97683.06;;;6.76;71.13
20350;BME280;10332;50.208;18.988;2023-04-26T05:15:22;97680.00;;;6.83;70.94
20350;BME280;10332;50.208;18.988;2023-04-26T05:17:50;97684.06;;;6.88;70.76
20350;BME280;10332;50.208;18.988;2023-04-26T05:20:17;97687.22;;;6.78;71.23
20350;BME280;10332;50.208;18.988;2023-04-26T05:22:46;97696.13;;;6.89;70.68
20350;BME280;10332;50.208;18.988;2023-04-26T05:25:13;97684.81;;;6.75;71.08
20350;BME280;10332;50.208;18.988;2023-04-26T05:27:41;97691.53;;;6.64;71.25
20350;BME280;10332;50.208;18.988;2023-04-26T05:30:09;97692.16;;;6.83;70.58
20350;BME280;10332;50.208;18.988;2023-04-26T05:32:37;97700.38;;;6.75;70.67
20350;BME280;10332;50.208;18.988;2023-04-26T05:35:04;97701.50;;;6.55;71.95
20350;BME280;10332;50.208;18.988;2023-04-26T05:37:32;97697.31;;;6.97;70.67
20350;BME280;10332;50.208;18.988;2023-04-26T05:40:01;97707.16;;;7.21;71.08
20350;BME280;10332;50.208;18.988;2023-04-26T05:42:28;97709.72;;;7.49;72.18
20350;BME280;10332;50.208;18.988;2023-04-26T05:44:58;97704.44;;;7.51;68.24
20350;BME280;10332;50.208;18.988;2023-04-26T05:47:26;97700.06;;;7.65;68.52
20350;BME280;10332;50.208;18.988;2023-04-26T05:49:53;97696.28;;;7.43;67.85
20350;BME280;10332;50.208;18.988;2023-04-26T05:52:21;97699.13;;;7.66;66.85
20350;BME280;10332;50.208;18.988;2023-04-26T05:54:49;97706.28;;;7.90;65.92
20350;BME280;10332;50.208;18.988;2023-04-26T05:57:16;97705.88;;;7.83;65.65
20350;BME280;10332;50.208;18.988;2023-04-26T05:59:45;97711.09;;;7.96;63.53
20350;BME280;10332;50.208;18.988;2023-04-26T06:02:13;97702.19;;;8.00;63.53
20350;BME280;10332;50.208;18.988;2023-04-26T06:04:40;97713.25;;;8.16;61.92
20350;BME280;10332;50.208;18.988;2023-04-26T06:07:08;97720.28;;;7.60;63.32
20350;BME280;10332;50.208;18.988;2023-04-26T06:09:36;97716.94;;;8.00;63.79
20350;BME280;10332;50.208;18.988;2023-04-26T06:12:04;97710.31;;;8.08;62.94
20350;BME280;10332;50.208;18.988;2023-04-26T06:14:31;97716.09;;;8.26;62.21
20350;BME280;10332;50.208;18.988;2023-04-26T06:17:17;97718.38;;;8.45;61.73
20350;BME280;10332;50.208;18.988;2023-04-26T06:19:45;97719.00;;;8.36;61.58
20350;BME280;10332;50.208;18.988;2023-04-26T06:22:13;97719.44;;;8.55;61.00
20350;BME280;10332;50.208;18.988;2023-04-26T06:24:40;97727.78;;;8.33;60.26
20350;BME280;10332;50.208;18.988;2023-04-26T06:27:08;97727.03;;;8.31;60.06
20350;BME280;10332;50.208;18.988;2023-04-26T06:29:35;97724.50;;;8.44;59.14
20350;BME280;10332;50.208;18.988;2023-04-26T06:32:03;97728.81;;;8.58;58.72
20350;BME280;10332;50.208;18.988;2023-04-26T06:34:30;97728.09;;;8.68;57.24
20350;BME280;10332;50.208;18.988;2023-04-26T06:36:58;97726.25;;;9.21;56.80
20350;BME280;10332;50.208;18.988;2023-04-26T06:39:25;97735.31;;;9.90;56.01
20350;BME280;10332;50.208;18.988;2023-04-26T06:41:53;97738.22;;;10.22;54.10
20350;BME280;10332;50.208;18.988;2023-04-26T06:44:20;97740.53;;;10.27;53.24
20350;BME280;10332;50.208;18.988;2023-04-26T06:46:48;97730.69;;;10.66;52.66
20350;BME280;10332;50.208;18.988;2023-04-26T06:49:15;97726.63;;;10.97;51.50
20350;BME280;10332;50.208;18.988;2023-04-26T06:51:43;97717.28;;;11.28;50.95
20350;BME280;10332;50.208;18.988;2023-04-26T06:54:11;97713.59;;;11.30;51.55
20350;BME280;10332;50.208;18.988;2023-04-26T06:56:39;97715.13;;;11.66;51.66
20350;BME280;10332;50.208;18.988;2023-04-26T06:59:07;97716.31;;;11.85;51.27
20350;BME280;10332;50.208;18.988;2023-04-26T07:01:34;97722.59;;;10.58;53.07
20350;BME280;10332;50.208;18.988;2023-04-26T07:04:04;97735.88;;;10.90;53.24
20350;BME280;10332;50.208;18.988;2023-04-26T07:06:36;97724.13;;;10.49;53.85
20350;BME280;10332;50.208;18.988;2023-04-26T07:09:03;97722.69;;;10.45;53.82
20350;BME280;10332;50.208;18.988;2023-04-26T07:11:31;97731.50;;;10.55;53.38
20350;BME280;10332;50.208;18.988;2023-04-26T07:13:58;97733.16;;;11.02;52.08
20350;BME280;10332;50.208;18.988;2023-04-26T07:16:27;97733.53;;;11.31;50.66
20350;BME280;10332;50.208;18.988;2023-04-26T07:18:55;97733.91;;;11.27;51.34
20350;BME280;10332;50.208;18.988;2023-04-26T07:21:25;97725.81;;;11.86;49.94
20350;BME280;10332;50.208;18.988;2023-04-26T07:23:56;97735.56;;;11.17;51.56
20350;BME280;10332;50.208;18.988;2023-04-26T07:26:26;97743.28;;;11.41;51.35
20350;BME280;10332;50.208;18.988;2023-04-26T07:28:54;97753.50;;;11.21;51.75
20350;BME280;10332;50.208;18.988;2023-04-26T07:31:21;97755.34;;;10.27;53.03
20350;BME280;10332;50.208;18.988;2023-04-26T07:33:49;97741.53;;;10.01;53.99
20350;BME280;10332;50.208;18.988;2023-04-26T07:36:17;97745.31;;;11.37;51.87
20350;BME280;10332;50.208;18.988;2023-04-26T07:38:44;97746.13;;;10.69;52.08
20350;BME280;10332;50.208;18.988;2023-04-26T07:41:12;97738.78;;;10.63;52.85
20350;BME280;10332;50.208;18.988;2023-04-26T07:43:39;97758.47;;;10.67;52.35
20350;BME280;10332;50.208;18.988;2023-04-26T07:46:07;97749.97;;;11.33;51.76
20350;BME280;10332;50.208;18.988;2023-04-26T07:48:35;97753.91;;;11.50;49.26
20350;BME280;10332;50.208;18.988;2023-04-26T07:51:12;97749.13;;;11.89;48.65
20350;BME280;10332;50.208;18.988;2023-04-26T07:53:40;97753.78;;;11.52;48.58
20350;BME280;10332;50.208;18.988;2023-04-26T07:56:08;97760.03;;;11.27;49.88
20350;BME280;10332;50.208;18.988;2023-04-26T07:58:37;97763.22;;;10.62;52.12
20350;BME280;10332;50.208;18.988;2023-04-26T08:01:06;97759.28;;;10.67;52.71
20350;BME280;10332;50.208;18.988;2023-04-26T08:03:33;97765.28;;;11.38;50.07
20350;BME280;10332;50.208;18.988;2023-04-26T08:06:01;97770.16;;;11.65;48.85
20350;BME280;10332;50.208;18.988;2023-04-26T08:08:29;97771.63;;;11.00;49.02
20350;BME280;10332;50.208;18.988;2023-04-26T08:10:58;97773.28;;;11.01;49.07
20350;BME280;10332;50.208;18.988;2023-04-26T08:13:26;97778.25;;;11.84;47.79
20350;BME280;10332;50.208;18.988;2023-04-26T08:15:56;97764.81;;;11.66;48.12
20350;BME280;10332;50.208;18.988;2023-04-26T08:18:23;97783.38;;;11.52;48.28
20350;BME280;10332;50.208;18.988;2023-04-26T08:20:50;97793.22;;;11.71;47.83
20350;BME280;10332;50.208;18.988;2023-04-26T08:23:21;97771.75;;;12.65;46.25
20350;BME280;10332;50.208;18.988;2023-04-26T08:25:49;97766.97;;;12.49;46.14
20350;BME280;10332;50.208;18.988;2023-04-26T08:28:16;97768.84;;;11.37;49.04
20350;BME280;10332;50.208;18.988;2023-04-26T08:30:44;97766.22;;;11.48;49.01
20350;BME280;10332;50.208;18.988;2023-04-26T08:33:11;97766.50;;;12.76;48.10
20350;BME280;10332;50.208;18.988;2023-04-26T08:35:39;97773.00;;;13.45;45.47
20350;BME280;10332;50.208;18.988;2023-04-26T08:38:07;97757.41;;;12.48;45.51
20350;BME280;10332;50.208;18.988;2023-04-26T08:40:35;97785.53;;;12.46;43.92
20350;BME280;10332;50.208;18.988;2023-04-26T08:43:02;97785.41;;;11.14;46.80
20350;BME280;10332;50.208;18.988;2023-04-26T08:45:33;97783.38;;;11.97;45.37
20350;BME280;10332;50.208;18.988;2023-04-26T08:48:09;97772.81;;;12.42;44.98
20350;BME280;10332;50.208;18.988;2023-04-26T08:50:43;97769.28;;;12.32;45.32
20350;BME280;10332;50.208;18.988;2023-04-26T08:53:16;97770.16;;;13.88;42.88
20350;BME280;10332;50.208;18.988;2023-04-26T08:55:51;97753.00;;;13.02;42.21
20350;BME280;10332;50.208;18.988;2023-04-26T08:58:19;97777.34;;;12.29;43.42
20350;BME280;10332;50.208;18.988;2023-04-26T09:00:49;97776.72;;;12.04;43.23
20350;BME280;10332;50.208;18.988;2023-04-26T09:03:17;97784.56;;;12.04;42.10
20350;BME280;10332;50.208;18.988;2023-04-26T09:05:45;97781.38;;;12.44;40.83
20350;BME280;10332;50.208;18.988;2023-04-26T09:08:15;97773.25;;;12.79;39.84
20350;BME280;10332;50.208;18.988;2023-04-26T09:10:45;97771.44;;;12.59;39.85
20350;BME280;10332;50.208;18.988;2023-04-26T09:13:12;97779.63;;;12.65;40.47
20350;BME280;10332;50.208;18.988;2023-04-26T09:15:41;97781.31;;;11.67;42.09
20350;BME280;10332;50.208;18.988;2023-04-26T09:18:21;97784.41;;;11.50;42.44
20350;BME280;10332;50.208;18.988;2023-04-26T09:21:06;97779.34;;;11.82;41.80
20350;BME280;10332;50.208;18.988;2023-04-26T09:23:34;97787.19;;;13.94;39.05
20350;BME280;10332;50.208;18.988;2023-04-26T09:26:19;97766.25;;;20.72;29.06
20350;BME280;10332;50.208;18.988;2023-04-26T09:28:48;97760.94;;;17.64;31.74
20350;BME280;10332;50.208;18.988;2023-04-26T09:31:42;97775.84;;;15.11;34.80
20350;BME280;10332;50.208;18.988;2023-04-26T09:34:14;97775.81;;;13.11;38.26
20350;BME280;10332;50.208;18.988;2023-04-26T09:36:52;97786.28;;;13.22;39.28
20350;BME280;10332;50.208;18.988;2023-04-26T09:39:33;97793.84;;;12.52;39.29
20350;BME280;10332;50.208;18.988;2023-04-26T09:42:03;97782.69;;;12.70;38.55
20350;BME280;10332;50.208;18.988;2023-04-26T09:44:31;97786.19;;;12.60;37.84
20350;BME280;10332;50.208;18.988;2023-04-26T09:47:08;97770.66;;;13.42;36.59
20350;BME280;10332;50.208;18.988;2023-04-26T09:49:49;97787.31;;;13.61;37.08
20350;BME280;10332;50.208;18.988;2023-04-26T09:52:18;97782.66;;;13.02;37.77
20350;BME280;10332;50.208;18.988;2023-04-26T09:54:49;97781.84;;;12.38;39.42
20350;BME280;10332;50.208;18.988;2023-04-26T09:57:19;97782.50;;;12.19;40.40
20350;BME280;10332;50.208;18.988;2023-04-26T09:59:51;97793.13;;;10.69;41.59
20350;BME280;10332;50.208;18.988;2023-04-26T10:02:26;97781.38;;;11.09;40.74
20350;BME280;10332;50.208;18.988;2023-04-26T10:04:55;97783.88;;;12.77;39.11
20350;BME280;10332;50.208;18.988;2023-04-26T10:07:24;97771.53;;;20.49;27.69
20350;BME280;10332;50.208;18.988;2023-04-26T10:09:53;97786.63;;;17.53;30.08
20350;BME280;10332;50.208;18.988;2023-04-26T10:12:22;97777.63;;;18.57;30.02
20350;BME280;10332;50.208;18.988;2023-04-26T10:14:49;97778.25;;;23.46;24.98
20350;BME280;10332;50.208;18.988;2023-04-26T10:17:18;97777.41;;;34.51;16.21
20350;BME280;10332;50.208;18.988;2023-04-26T10:19:52;97776.34;;;37.82;12.82
20350;BME280;10332;50.208;18.988;2023-04-26T10:22:28;97799.53;;;42.48;10.37
20350;BME280;10332;50.208;18.988;2023-04-26T10:24:58;97799.75;;;31.28;14.71
20350;BME280;10332;50.208;18.988;2023-04-26T10:30:15;97798.22;;;19.04;25.10
20350;BME280;10332;50.208;18.988;2023-04-26T10:35:27;97802.31;;;21.64;22.10
20350;BME280;10332;50.208;18.988;2023-04-26T10:40:27;97809.72;;;16.27;28.51
20350;BME280;10332;50.208;18.988;2023-04-26T10:45:36;97806.56;;;15.20;30.52
20350;BME280;10332;50.208;18.988;2023-04-26T10:48:21;97789.03;;;22.74;23.45
20350;BME280;10332;50.208;18.988;2023-04-26T10:59:11;97784.03;;;37.75;11.36
20350;BME280;10332;50.208;18.988;2023-04-26T11:01:59;97777.56;;;38.61;11.02
20350;BME280;10332;50.208;18.988;2023-04-26T11:04:51;97800.88;;;26.71;16.52
20350;BME280;10332;50.208;18.988;2023-04-26T11:07:38;97784.16;;;24.46;18.61
20350;BME280;10332;50.208;18.988;2023-04-26T11:10:21;97798.94;;;22.44;21.45
20350;BME280;10332;50.208;18.988;2023-04-26T11:13:00;97811.25;;;20.26;21.91
20350;BME280;10332;50.208;18.988;2023-04-26T11:15:33;97803.81;;;19.66;22.37
20350;BME280;10332;50.208;18.988;2023-04-26T11:18:04;97802.81;;;18.85;22.57
20350;BME280;10332;50.208;18.988;2023-04-26T11:20:33;97796.88;;;18.91;22.98
20350;BME280;10332;50.208;18.988;2023-04-26T11:23:00;97794.25;;;19.16;23.50
20350;BME280;10332;50.208;18.988;2023-04-26T11:25:29;97801.03;;;18.27;24.06
20350;BME280;10332;50.208;18.988;2023-04-26T11:28:01;97799.06;;;17.43;25.28
20350;BME280;10332;50.208;18.988;2023-04-26T11:30:31;97804.91;;;16.58;26.70
20350;BME280;10332;50.208;18.988;2023-04-26T11:33:00;97816.91;;;16.25;27.69
20350;BME280;10332;50.208;18.988;2023-04-26T11:35:31;97807.34;;;16.24;27.65
20350;BME280;10332;50.208;18.988;2023-04-26T11:37:59;97801.69;;;16.46;26.82
20350;BME280;10332;50.208;18.988;2023-04-26T11:40:31;97799.06;;;17.17;27.17
20350;BME280;10332;50.208;18.988;2023-04-26T11:43:06;97790.84;;;17.20;25.46
20350;BME280;10332;50.208;18.988;2023-04-26T11:45:36;97785.34;;;16.96;25.81
20350;BME280;10332;50.208;18.988;2023-04-26T11:48:06;97785.91;;;16.82;26.79
20350;BME280;10332;50.208;18.988;2023-04-26T11:50:38;97784.50;;;16.42;27.22
20350;BME280;10332;50.208;18.988;2023-04-26T11:53:07;97782.69;;;16.60;27.42
20350;BME280;10332;50.208;18.988;2023-04-26T11:55:35;97801.50;;;16.75;27.70
20350;BME280;10332;50.208;18.988;2023-04-26T11:58:12;97801.66;;;16.73;27.65
20350;BME280;10332;50.208;18.988;2023-04-26T12:00:59;97795.16;;;17.03;28.66
20350;BME280;10332;50.208;18.988;2023-04-26T12:03:31;97801.28;;;17.74;27.73
20350;BME280;10332;50.208;18.988;2023-04-26T12:06:04;97805.47;;;18.19;27.75
20350;BME280;10332;50.208;18.988;2023-04-26T12:08:32;97809.47;;;17.89;26.80
20350;BME280;10332;50.208;18.988;2023-04-26T12:11:03;97795.72;;;17.15;27.88
20350;BME280;10332;50.208;18.988;2023-04-26T12:13:30;97802.97;;;17.57;27.88
20350;BME280;10332;50.208;18.988;2023-04-26T12:15:59;97804.47;;;17.16;29.12
20350;BME280;10332;50.208;18.988;2023-04-26T12:18:31;97806.47;;;16.96;28.91
20350;BME280;10332;50.208;18.988;2023-04-26T12:21:00;97806.19;;;16.36;29.25
20350;BME280;10332;50.208;18.988;2023-04-26T12:23:38;97803.44;;;15.53;30.20
20350;BME280;10332;50.208;18.988;2023-04-26T12:26:07;97812.03;;;15.65;30.17
20350;BME280;10332;50.208;18.988;2023-04-26T12:28:37;97809.00;;;15.50;30.66
20350;BME280;10332;50.208;18.988;2023-04-26T12:31:04;97815.63;;;15.54;31.17
20350;BME280;10332;50.208;18.988;2023-04-26T12:33:33;97812.16;;;15.54;31.72
20350;BME280;10332;50.208;18.988;2023-04-26T12:36:10;97814.84;;;15.34;30.89
20350;BME280;10332;50.208;18.988;2023-04-26T12:38:38;97838.09;;;15.00;31.29
20350;BME280;10332;50.208;18.988;2023-04-26T12:41:07;97837.22;;;13.29;34.80
20350;BME280;10332;50.208;18.988;2023-04-26T12:43:34;97859.16;;;14.01;34.63
20350;BME280;10332;50.208;18.988;2023-04-26T12:46:02;97848.44;;;14.13;34.67
20350;BME280;10332;50.208;18.988;2023-04-26T12:48:29;97845.16;;;14.61;34.22
20350;BME280;10332;50.208;18.988;2023-04-26T12:50:57;97840.28;;;15.53;33.02
20350;BME280;10332;50.208;18.988;2023-04-26T12:53:24;97834.13;;;15.92;30.92
20350;BME280;10332;50.208;18.988;2023-04-26T12:55:52;97822.22;;;16.15;30.31
20350;BME280;10332;50.208;18.988;2023-04-26T12:58:19;97823.66;;;16.09;30.25
20350;BME280;10332;50.208;18.988;2023-04-26T13:00:48;97822.50;;;15.84;30.22
20350;BME280;10332;50.208;18.988;2023-04-26T13:03:17;97813.44;;;16.24;28.40
20350;BME280;10332;50.208;18.988;2023-04-26T13:05:45;97820.28;;;16.72;28.62
20350;BME280;10332;50.208;18.988;2023-04-26T13:08:12;97814.75;;;17.01;28.52
20350;BME280;10332;50.208;18.988;2023-04-26T13:10:40;97814.28;;;17.06;28.06
20350;BME280;10332;50.208;18.988;2023-04-26T13:13:08;97816.13;;;16.60;28.48
20350;BME280;10332;50.208;18.988;2023-04-26T13:15:35;97822.47;;;15.94;29.50
20350;BME280;10332;50.208;18.988;2023-04-26T13:18:03;97817.53;;;15.72;30.41
20350;BME280;10332;50.208;18.988;2023-04-26T13:20:31;97807.66;;;16.21;29.37
20350;BME280;10332;50.208;18.988;2023-04-26T13:22:58;97818.97;;;16.31;29.09
20350;BME280;10332;50.208;18.988;2023-04-26T13:25:26;97823.38;;;15.75;30.42